Impacts METAR Board
IDs:

KGTR - Golden Triangle Arpt, MS, US

Updated at: 0900 UTC 17 Aug 2018
Potential Impact None Slight Moderate High
Time 16/21Z 16/22Z 16/23Z 17/00Z 17/01Z 17/02Z 17/03Z 17/04Z 17/05Z 17/06Z 17/07Z 17/08Z 17/09Z
Temp92 84 82 81 78 81 78 77 73 74 73 74 73
Dewpt77 73 74 75 75 75 71 70 69 71 72 72 72
Altim30.05 30.06 30.05 30.05 30.06 30.08 30.11 30.10 30.11 30.09 30.09 30.08 30.11
VIS10 10 10 10 10 10 10 10 10 10 7 10 10
CIG-- 50 -- -- -- -- -- -- -- -- -- -- --
CoverCLRBKNCLRCLRFEWCLRCLRCLRCLRCLRCLRCLRCLR
FltCatVFRVFRVFRVFRVFRVFRVFRVFRVFRVFRVFRVFRVFR
WX--TS----------------------
WDir3019000170160200140150150160170170
WSpd4 8 0 0 4 10 8 5 5 6 6 6 4
WGst-- -- -- -- -- -- -- -- -- -- -- -- --
Raw hourly METARs
KGTR 162056Z 03004KT 10SM CLR 33/25 A3005 RMK AO2 LTG DSNT SE-W RAE11 SLP173 6//// T03330250 56005 PNO $
KGTR 162202Z 19008KT 10SM TS BKN050 BKN100 BKN110 29/23 A3006 RMK AO2 LTG DSNT SE AND SW TSE2159B02 PNO $
KGTR 162256Z 00000KT 10SM CLR 28/23 A3005 RMK AO2 LTG DSNT NE TSE2159B02E16RAB07E29 SLP173 T02780233 PNO $
KGTR 162356Z 00000KT 10SM CLR 27/24 A3005 RMK AO2 SLP176 6//// T02720239 10333 20272 51003 PNO $
KGTR 170056Z AUTO 17004KT 10SM FEW055 26/24 A3006 RMK AO2 SLP178 T02560239 PNO $
KGTR 170156Z AUTO 16010KT 10SM CLR 27/24 A3008 RMK AO2 LTG DSNT S SLP185 T02720239 PNO $
KGTR 170256Z AUTO 20008KT 10SM CLR 26/22 A3011 RMK AO2 SLP196 6//// T02560217 53019 PNO $
KGTR 170356Z AUTO 14005KT 10SM CLR 25/21 A3010 RMK AO2 SLP192 T02500211 PNO $
KGTR 170456Z AUTO 15005KT 10SM CLR 23/21 A3011 RMK AO2 SLP193 T02280206 PNO $
KGTR 170556Z AUTO 15006KT 10SM CLR 23/22 A3009 RMK AO2 SLP187 6//// T02330217 10278 20228 403440228 58008 PNO $
KGTR 170656Z AUTO 16006KT 7SM CLR 23/22 A3009 RMK AO2 SLP187 T02280222 PNO $
KGTR 170756Z AUTO 17006KT 10SM CLR 23/22 A3008 RMK AO2 SLP186 T02330222 TSNO PNO $
KGTR 170856Z AUTO 17004KT 10SM CLR 23/22 A3011 RMK AO2 SLP195 6//// T02280222 53007 PNO $



Page loaded:  09:31 UTC  |   02:31 AM Pacific  |   03:31 AM Mountain  |   04:31 AM Central  |   05:31 AM Eastern

 

ADVISORIES

FORECASTS

FORECASTS

OBSERVATIONS

USER TOOLS

ABOUT US